Time;durP1;ratioP1;P1;durP2;ratioP2;P2;SDS_P1;SDS_P2;PMS_P1;PMS_P2;Temp;Humidity;BMP_temperature;BMP_pressure;BME280_temperature;BME280_humidity;BME280_pressure;Samples;Min_cycle;Max_cycle;Signal;HPM_P1;HPM_P2
2022/10/05 00:01:02;;;;;;;;;3.25;3.25;27.10;99.90;;;;;;5013565;28;8882;-64
2022/10/05 00:03:36;;;;;;;;;4.25;4.25;27.00;99.90;;;;;;5029396;28;8852;-64
2022/10/05 00:06:09;;;;;;;;;4.75;4.75;27.00;99.90;;;;;;4982498;28;8860;-65
2022/10/05 00:08:42;;;;;;;;;6.50;5.00;26.90;99.90;;;;;;4998546;28;8868;-66
2022/10/05 00:11:15;;;;;;;;;4.50;4.50;26.90;99.90;;;;;;4990587;28;8868;-68
2022/10/05 00:13:46;;;;;;;;;5.00;5.00;26.80;99.90;;;;;;4998187;28;8864;-62
2022/10/05 00:16:20;;;;;;;;;4.50;4.50;26.80;99.90;;;;;;5005532;28;8843;-63
2022/10/05 00:18:52;;;;;;;;;5.00;5.00;26.70;99.90;;;;;;4993920;28;8867;-63
2022/10/05 00:21:27;;;;;;;;;4.75;4.75;26.50;99.90;;;;;;4992373;28;8874;-65
2022/10/05 00:24:10;;;;;;;;;4.75;4.75;26.50;99.90;;;;;;4992462;28;8872;-67
2022/10/05 00:26:40;;;;;;;;;5.50;5.50;26.40;99.90;;;;;;4993074;28;9660;-68
2022/10/05 00:29:22;;;;;;;;;4.75;4.75;26.20;99.90;;;;;;4989845;28;8855;-66
2022/10/05 00:31:53;;;;;;;;;5.00;5.00;26.30;99.90;;;;;;4996264;28;8873;-67
2022/10/05 00:34:26;;;;;;;;;3.25;3.25;26.20;99.90;;;;;;5025287;28;8879;-68
2022/10/05 00:36:59;;;;;;;;;4.50;4.50;26.10;99.90;;;;;;5009189;28;8895;-69
2022/10/05 00:39:29;;;;;;;;;5.00;5.00;25.90;99.90;;;;;;5010081;28;8832;-64
2022/10/05 00:42:19;;;;;;;;;5.00;5.00;25.90;99.90;;;;;;5008320;28;8836;-68
2022/10/05 00:45:20;;;;;;;;;5.75;5.75;25.60;99.90;;;;;;4995259;28;8843;-67
2022/10/05 00:48:10;;;;;;;;;5.00;5.00;25.50;99.90;;;;;;4992905;28;8872;-70
2022/10/05 00:51:07;;;;;;;;;4.00;4.00;25.30;99.90;;;;;;4993949;28;8856;-66
2022/10/05 00:54:14;;;;;;;;;5.00;5.00;25.10;99.90;;;;;;4990280;28;9013;-68
2022/10/05 00:57:05;;;;;;;;;6.50;6.50;25.10;99.90;;;;;;5022443;28;8911;-58
2022/10/05 00:59:57;;;;;;;;;4.75;4.75;24.90;99.90;;;;;;5005608;28;8866;-64
2022/10/05 01:02:44;;;;;;;;;5.25;5.25;24.80;99.90;;;;;;5024592;28;9009;-65
2022/10/05 01:05:44;;;;;;;;;5.75;5.75;24.70;99.90;;;;;;4993339;28;8878;-66
2022/10/05 01:08:40;;;;;;;;;6.25;5.00;24.70;99.90;;;;;;5026550;28;8867;-64
2022/10/05 01:11:51;;;;;;;;;6.00;6.00;24.50;99.90;;;;;;4996487;28;9553;-67
2022/10/05 01:14:42;;;;;;;;;6.25;5.00;24.50;99.90;;;;;;5025790;28;9602;-68
2022/10/05 01:17:50;;;;;;;;;4.75;4.75;24.40;99.90;;;;;;5008367;28;9028;-66
2022/10/05 01:20:59;;;;;;;;;6.50;6.50;24.20;99.90;;;;;;5003105;28;8837;-65
2022/10/05 01:24:03;;;;;;;;;4.75;4.75;24.10;99.90;;;;;;4995877;28;9017;-64
2022/10/05 01:27:07;;;;;;;;;7.00;5.25;24.00;99.90;;;;;;4995890;28;8894;-64
2022/10/05 01:30:12;;;;;;;;;5.50;5.50;23.90;99.90;;;;;;4988610;28;8872;-65
2022/10/05 01:32:54;;;;;;;;;5.00;5.00;23.80;99.90;;;;;;4988972;28;8899;-66
2022/10/05 01:36:05;;;;;;;;;6.00;6.00;23.70;99.90;;;;;;4993446;28;8848;-63
2022/10/05 01:38:57;;;;;;;;;5.00;4.00;23.70;99.90;;;;;;4994686;28;8871;-66
2022/10/05 01:41:57;;;;;;;;;5.00;5.00;23.60;99.90;;;;;;4986513;28;9018;-64
2022/10/05 01:45:26;;;;;;;;;4.00;4.00;23.50;99.90;;;;;;5009211;28;8856;-65
2022/10/05 01:48:19;;;;;;;;;4.00;4.00;23.40;99.90;;;;;;4901788;28;8843;-65
2022/10/05 01:51:04;;;;;;;;;5.00;5.00;23.30;99.90;;;;;;4987946;28;8840;-65
2022/10/05 01:53:52;;;;;;;;;6.25;6.25;23.30;99.90;;;;;;4990347;28;8840;-65
2022/10/05 01:56:34;;;;;;;;;5.25;5.25;23.20;99.90;;;;;;4991783;28;8864;-67
2022/10/05 01:59:36;;;;;;;;;6.75;6.75;23.10;99.90;;;;;;5006954;28;8871;-66
2022/10/05 02:02:19;;;;;;;;;6.00;6.00;23.20;99.90;;;;;;4989052;28;8857;-63
2022/10/05 02:05:10;;;;;;;;;7.00;7.00;23.20;99.90;;;;;;5001602;28;8860;-60
2022/10/05 02:07:46;;;;;;;;;14.75;9.00;23.10;99.90;;;;;;4988928;28;9538;-58
2022/10/05 02:10:50;;;;;;;;;6.25;6.25;23.10;99.90;;;;;;4989606;28;8855;-57
2022/10/05 02:14:02;;;;;;;;;4.00;4.00;23.00;99.90;;;;;;4985507;28;8848;-61
2022/10/05 02:16:43;;;;;;;;;5.50;5.50;23.00;99.90;;;;;;5013048;28;8867;-61
2022/10/05 02:19:25;;;;;;;;;5.50;5.50;22.90;99.90;;;;;;4991634;28;8915;-58
2022/10/05 02:22:07;;;;;;;;;5.00;5.00;22.90;99.90;;;;;;5009698;28;8852;-57
2022/10/05 02:24:51;;;;;;;;;4.75;4.75;22.90;99.90;;;;;;4993942;28;8872;-58
2022/10/05 02:27:54;;;;;;;;;3.75;3.75;22.80;99.90;;;;;;4984017;28;8942;-59
2022/10/05 02:30:28;;;;;;;;;4.75;4.75;22.90;99.90;;;;;;5002608;28;9625;-58
2022/10/05 02:33:09;;;;;;;;;6.00;6.00;22.90;99.90;;;;;;4988332;28;8886;-60
2022/10/05 02:35:40;;;;;;;;;6.00;6.00;23.00;99.90;;;;;;4991401;28;8899;-61
2022/10/05 02:38:13;;;;;;;;;5.75;5.75;23.00;99.90;;;;;;4989346;28;9378;-57
2022/10/05 02:41:12;;;;;;;;;7.00;7.00;23.10;99.90;;;;;;4991890;28;8868;-56
2022/10/05 02:44:10;;;;;;;;;5.50;5.50;23.20;99.90;;;;;;4998526;28;8915;-57
2022/10/05 02:46:48;;;;;;;;;5.00;5.00;23.10;99.90;;;;;;4992587;28;8882;-56
2022/10/05 02:49:58;;;;;;;;;8.50;8.00;23.00;99.90;;;;;;4997970;28;8849;-57
2022/10/05 02:53:15;;;;;;;;;7.50;6.25;22.90;99.90;;;;;;5018520;28;8886;-57
2022/10/05 02:55:48;;;;;;;;;6.00;6.00;22.90;99.90;;;;;;4993543;28;8832;-61
2022/10/05 02:58:29;;;;;;;;;8.75;7.25;22.80;99.90;;;;;;5006798;28;8866;-61
2022/10/05 03:01:12;;;;;;;;;7.25;7.25;22.80;99.90;;;;;;5030773;28;8839;-60
2022/10/05 03:04:18;;;;;;;;;5.75;5.75;22.90;99.90;;;;;;4995158;28;8838;-57
2022/10/05 03:07:21;;;;;;;;;6.00;6.00;22.80;99.90;;;;;;5008426;28;8858;-58
2022/10/05 03:10:07;;;;;;;;;6.00;6.00;22.70;99.90;;;;;;4974585;28;10277;-60
2022/10/05 03:12:55;;;;;;;;;7.00;7.00;22.60;99.90;;;;;;4988475;28;8859;-61
2022/10/05 03:15:47;;;;;;;;;6.25;6.25;22.60;99.90;;;;;;5003268;28;8832;-61
2022/10/05 03:18:27;;;;;;;;;7.75;7.75;22.50;99.90;;;;;;5015670;28;8843;-62
2022/10/05 03:21:44;;;;;;;;;6.75;6.75;22.30;99.90;;;;;;4994023;28;8850;-62
2022/10/05 03:24:34;;;;;;;;;7.50;7.50;22.50;99.90;;;;;;4992996;28;9018;-58
2022/10/05 03:27:24;;;;;;;;;5.00;5.00;22.30;99.90;;;;;;4991938;28;8844;-56
2022/10/05 03:30:11;;;;;;;;;6.00;6.00;22.20;99.90;;;;;;5003532;28;8882;-58
2022/10/05 03:32:48;;;;;;;;;6.25;6.25;22.20;99.90;;;;;;4997764;28;8845;-58
2022/10/05 03:35:31;;;;;;;;;5.50;5.50;22.00;99.90;;;;;;5002301;28;8863;-57
2022/10/05 03:38:24;;;;;;;;;5.50;5.50;22.00;99.90;;;;;;5002435;28;8860;-60
2022/10/05 03:41:14;;;;;;;;;6.00;6.00;22.00;99.90;;;;;;4998094;28;8882;-61
2022/10/05 03:43:59;;;;;;;;;5.75;5.75;22.00;99.90;;;;;;4989436;28;8895;-62
2022/10/05 03:46:56;;;;;;;;;6.00;6.00;21.90;99.90;;;;;;5019649;28;8890;-61
2022/10/05 03:50:06;;;;;;;;;5.00;4.00;22.00;99.90;;;;;;5004027;28;8883;-61
2022/10/05 03:53:03;;;;;;;;;4.00;4.00;22.00;99.90;;;;;;5009438;28;8844;-62
2022/10/05 03:55:41;;;;;;;;;4.00;4.00;22.00;99.90;;;;;;4988547;28;8836;-61
2022/10/05 03:58:19;;;;;;;;;5.75;4.25;21.80;99.90;;;;;;5005277;28;8857;-60
2022/10/05 04:00:55;;;;;;;;;5.50;5.50;21.80;99.90;;;;;;4995130;28;9609;-60
2022/10/05 04:03:41;;;;;;;;;4.50;4.50;21.90;99.90;;;;;;5005322;28;8864;-58
2022/10/05 04:07:00;;;;;;;;;4.00;4.00;21.90;99.90;;;;;;4995624;28;8836;-58
2022/10/05 04:09:36;;;;;;;;;5.00;5.00;21.90;99.90;;;;;;5012699;28;8910;-58
2022/10/05 04:12:34;;;;;;;;;5.25;5.25;21.70;99.90;;;;;;5025983;28;8883;-58
2022/10/05 04:15:21;;;;;;;;;5.00;5.00;21.70;99.90;;;;;;5009008;28;8863;-57
2022/10/05 04:18:06;;;;;;;;;7.00;7.00;21.60;99.90;;;;;;4994290;28;8852;-58
2022/10/05 04:20:43;;;;;;;;;6.50;6.50;21.60;99.90;;;;;;4991382;28;8840;-60
2022/10/05 04:23:45;;;;;;;;;6.25;6.25;21.50;99.90;;;;;;4999876;28;8876;-60
2022/10/05 04:26:31;;;;;;;;;5.00;5.00;21.40;99.90;;;;;;4989849;28;8855;-60
2022/10/05 04:29:24;;;;;;;;;6.00;6.00;21.30;99.90;;;;;;5012046;28;8859;-59
2022/10/05 04:32:13;;;;;;;;;4.75;4.75;21.30;99.90;;;;;;5006994;28;8838;-61
2022/10/05 04:35:09;;;;;;;;;5.00;5.00;21.30;99.90;;;;;;5023162;28;8851;-59
2022/10/05 04:38:17;;;;;;;;;6.00;6.00;21.20;99.90;;;;;;5011136;28;8909;-59
2022/10/05 04:41:20;;;;;;;;;5.00;5.00;21.20;99.90;;;;;;4999302;28;8860;-62
2022/10/05 04:44:02;;;;;;;;;5.75;5.75;21.20;99.90;;;;;;4992899;28;8871;-61
2022/10/05 04:47:00;;;;;;;;;6.00;6.00;21.20;99.90;;;;;;4991821;28;8904;-61
2022/10/05 04:50:04;;;;;;;;;6.00;6.00;21.00;99.90;;;;;;4995427;28;8840;-60
2022/10/05 04:52:56;;;;;;;;;5.00;5.00;21.00;99.90;;;;;;5020044;28;8882;-60
2022/10/05 04:55:55;;;;;;;;;5.50;5.50;21.00;99.90;;;;;;4989679;28;8922;-60
2022/10/05 04:58:34;;;;;;;;;5.50;5.50;20.90;99.90;;;;;;5021909;28;8864;-58
2022/10/05 05:01:37;;;;;;;;;5.50;5.50;20.90;99.90;;;;;;4992685;28;8840;-58
2022/10/05 05:04:40;;;;;;;;;6.00;6.00;20.90;99.90;;;;;;5013980;28;9014;-58
2022/10/05 05:07:16;;;;;;;;;5.50;5.50;20.80;99.90;;;;;;4991558;28;8877;-58
2022/10/05 05:10:06;;;;;;;;;7.25;6.00;20.80;99.90;;;;;;4997395;28;8856;-58
2022/10/05 05:13:05;;;;;;;;;6.75;5.00;20.80;99.90;;;;;;5007921;28;8832;-58
2022/10/05 05:16:13;;;;;;;;;3.75;3.75;20.70;99.90;;;;;;4994385;28;8840;-59
2022/10/05 05:19:15;;;;;;;;;4.00;4.00;20.80;99.90;;;;;;4999508;28;9437;-58
2022/10/05 05:21:57;;;;;;;;;7.00;5.00;20.70;99.90;;;;;;4999002;28;8842;-59
2022/10/05 05:24:49;;;;;;;;;4.50;4.50;20.70;99.90;;;;;;5006190;28;8868;-60
2022/10/05 05:27:45;;;;;;;;;6.50;5.25;20.60;99.90;;;;;;4993082;28;8833;-61
2022/10/05 05:30:43;;;;;;;;;3.00;3.00;20.60;99.90;;;;;;5031946;28;8892;-58
2022/10/05 05:33:28;;;;;;;;;6.25;6.25;20.60;99.90;;;;;;5011122;28;8851;-58
2022/10/05 05:36:21;;;;;;;;;5.00;5.00;20.60;99.90;;;;;;5011241;28;8890;-59
2022/10/05 05:39:07;;;;;;;;;4.75;4.75;20.60;99.90;;;;;;5016501;28;8869;-62
2022/10/05 05:41:47;;;;;;;;;5.00;5.00;20.60;99.90;;;;;;5022197;28;8859;-61
2022/10/05 05:44:42;;;;;;;;;6.25;6.25;20.60;99.90;;;;;;5002982;28;8860;-61
2022/10/05 05:47:27;;;;;;;;;4.50;4.50;20.60;99.90;;;;;;4993028;28;8845;-62
2022/10/05 05:50:11;;;;;;;;;5.00;5.00;20.60;99.90;;;;;;5020927;28;8831;-62
2022/10/05 05:52:43;;;;;;;;;5.25;5.25;20.50;99.90;;;;;;4992948;28;8903;-61
2022/10/05 05:55:27;;;;;;;;;6.75;6.75;20.40;99.90;;;;;;4997693;28;8883;-60
2022/10/05 05:58:37;;;;;;;;;6.00;6.00;20.40;99.90;;;;;;5002625;28;8880;-59
2022/10/05 06:01:34;;;;;;;;;6.75;5.00;20.30;99.90;;;;;;5009922;28;8837;-58
2022/10/05 06:04:44;;;;;;;;;5.75;5.75;20.20;99.90;;;;;;4995485;28;8890;-62
2022/10/05 06:07:24;;;;;;;;;4.00;4.00;20.20;99.90;;;;;;4995645;28;9869;-61
2022/10/05 06:10:05;;;;;;;;;5.25;5.25;20.20;99.90;;;;;;4998166;28;9054;-61
2022/10/05 06:12:48;;;;;;;;;4.50;4.50;20.10;99.90;;;;;;5026227;28;9817;-60
2022/10/05 06:16:08;;;;;;;;;5.25;5.25;20.10;99.90;;;;;;5036130;28;8830;-58
2022/10/05 06:18:44;;;;;;;;;5.00;5.00;20.20;99.90;;;;;;4999026;28;8863;-58
2022/10/05 06:21:22;;;;;;;;;4.00;4.00;20.10;99.90;;;;;;5001520;28;8873;-58
2022/10/05 06:24:27;;;;;;;;;5.25;4.50;20.20;99.90;;;;;;5009452;28;8839;-58
2022/10/05 06:27:08;;;;;;;;;7.00;5.25;20.20;99.90;;;;;;4989955;28;8876;-57
2022/10/05 06:30:00;;;;;;;;;4.75;4.75;20.20;99.90;;;;;;4999534;28;8859;-58
2022/10/05 06:32:46;;;;;;;;;9.00;6.25;20.20;99.90;;;;;;5001166;28;8880;-59
2022/10/05 06:35:44;;;;;;;;;5.00;5.00;20.10;99.90;;;;;;4993511;28;8902;-59
2022/10/05 06:38:55;;;;;;;;;5.00;5.00;20.10;99.90;;;;;;4986475;28;9478;-58
2022/10/05 06:41:44;;;;;;;;;5.00;5.00;20.10;99.90;;;;;;4988530;28;8858;-57
2022/10/05 06:44:39;;;;;;;;;6.25;6.00;20.10;99.90;;;;;;5025272;28;8850;-61
2022/10/05 06:47:59;;;;;;;;;3.25;3.25;19.90;99.90;;;;;;5016590;28;8859;-60
2022/10/05 06:51:34;;;;;;;;;3.50;3.50;20.00;99.90;;;;;;4996783;28;9668;-60
2022/10/05 06:54:53;;;;;;;;;6.75;6.75;20.00;99.90;;;;;;5011463;28;8870;-59
2022/10/05 06:57:49;;;;;;;;;5.00;5.00;19.80;99.90;;;;;;5000641;28;8832;-58
2022/10/05 07:00:33;;;;;;;;;6.00;6.00;19.80;99.90;;;;;;4999832;28;8845;-58
2022/10/05 07:03:13;;;;;;;;;5.00;5.00;19.80;99.90;;;;;;5024242;28;8845;-59
2022/10/05 07:06:15;;;;;;;;;3.50;3.50;19.80;99.90;;;;;;5015942;28;8856;-61
2022/10/05 07:09:02;;;;;;;;;5.75;5.75;19.70;99.90;;;;;;5001878;28;9263;-60
2022/10/05 07:12:07;;;;;;;;;6.25;6.25;19.80;99.90;;;;;;4996497;28;8906;-58
2022/10/05 07:14:52;;;;;;;;;4.75;4.75;19.80;99.90;;;;;;4998683;28;8856;-57
2022/10/05 07:17:57;;;;;;;;;6.25;6.25;19.60;99.90;;;;;;5012460;28;8840;-58
2022/10/05 07:20:52;;;;;;;;;3.00;3.00;19.60;99.90;;;;;;4990485;28;8846;-61
2022/10/05 07:23:31;;;;;;;;;6.00;5.00;19.50;99.90;;;;;;4998536;28;8865;-60
2022/10/05 07:26:25;;;;;;;;;6.50;6.50;19.50;99.90;;;;;;5006388;28;8874;-58
2022/10/05 07:29:09;;;;;;;;;6.00;6.00;19.50;99.90;;;;;;5020524;28;8871;-58
2022/10/05 07:32:05;;;;;;;;;8.67;8.67;19.40;99.90;;;;;;5034386;28;8876;-58
2022/10/05 07:37:53;;;;;;;;;7.25;6.25;19.50;99.90;;;;;;4998744;28;8955;-57
2022/10/05 07:38:12;;;;;;;;;6.25;6.25;19.40;99.90;;;;;;5002856;28;8874;-59
2022/10/05 07:41:09;;;;;;;;;9.00;9.00;19.40;99.90;;;;;;4999986;28;8828;-58
2022/10/05 07:44:03;;;;;;;;;7.00;7.00;19.40;99.90;;;;;;5017123;28;8867;-60
2022/10/05 07:46:50;;;;;;;;;7.50;7.50;19.30;99.90;;;;;;5000590;28;8862;-60
2022/10/05 07:50:05;;;;;;;;;8.00;8.00;19.30;99.90;;;;;;5029270;28;8844;-60
2022/10/05 07:52:54;;;;;;;;;6.00;6.00;19.20;99.90;;;;;;4973192;28;8864;-61
2022/10/05 07:55:40;;;;;;;;;6.00;6.00;19.30;99.90;;;;;;4965454;28;8840;-59
2022/10/05 07:58:27;;;;;;;;;6.00;6.00;19.20;99.90;;;;;;5012105;28;8910;-61
2022/10/05 08:01:04;;;;;;;;;3.00;3.00;19.20;99.90;;;;;;4999090;28;8869;-62
2022/10/05 08:04:10;;;;;;;;;5.50;5.50;19.20;99.90;;;;;;5016798;28;8932;-58
2022/10/05 08:06:50;;;;;;;;;7.25;7.25;19.20;99.90;;;;;;5028265;28;8847;-58
2022/10/05 08:09:58;;;;;;;;;5.67;5.67;19.20;99.90;;;;;;5013618;28;8852;-58
2022/10/05 08:13:00;;;;;;;;;5.00;5.00;19.10;99.90;;;;;;4997470;28;9092;-58
2022/10/05 08:15:55;;;;;;;;;7.00;7.00;19.00;99.90;;;;;;4999170;28;8848;-57
2022/10/05 08:18:47;;;;;;;;;7.25;7.25;19.00;99.90;;;;;;5003153;28;8992;-61
2022/10/05 08:21:36;;;;;;;;;7.00;7.00;18.90;99.90;;;;;;4996302;28;8843;-59
2022/10/05 08:24:38;;;;;;;;;7.00;7.00;18.90;99.90;;;;;;5027179;28;8955;-58
2022/10/05 08:27:17;;;;;;;;;6.67;6.67;18.90;99.90;;;;;;5011883;28;8940;-57
2022/10/05 08:30:18;;;;;;;;;8.00;8.00;18.80;99.90;;;;;;4997686;28;9172;-60
2022/10/05 08:32:49;;;;;;;;;8.00;8.00;18.80;99.90;;;;;;4995458;28;8856;-59
2022/10/05 08:35:46;;;;;;;;;7.00;7.00;18.80;99.90;;;;;;4998885;28;9026;-61
2022/10/05 08:38:21;;;;;;;;;5.75;5.75;18.80;99.90;;;;;;4994491;28;8838;-57
2022/10/05 08:41:06;;;;;;;;;5.00;5.00;18.70;99.90;;;;;;4991223;28;8887;-58
2022/10/05 08:43:55;;;;;;;;;7.00;7.00;18.70;99.90;;;;;;4992299;28;9065;-58
2022/10/05 08:47:04;;;;;;;;;3.00;3.00;18.60;99.90;;;;;;4999909;28;10115;-57
2022/10/05 08:49:53;;;;;;;;;7.67;7.67;18.50;99.90;;;;;;4994672;28;10203;-59
2022/10/05 08:52:33;;;;;;;;;4.00;4.00;18.50;99.90;;;;;;5003558;28;9009;-60
2022/10/05 08:55:48;;;;;;;;;6.67;6.67;18.50;99.90;;;;;;5002021;28;9008;-59
2022/10/05 08:58:34;;;;;;;;;9.00;9.00;18.40;99.90;;;;;;4997846;28;9187;-64
2022/10/05 09:01:04;;;;;;;;;7.33;7.33;18.40;99.90;;;;;;5004134;28;9228;-60
2022/10/05 09:04:01;;;;;;;;;6.00;6.00;18.40;99.90;;;;;;5002991;28;9889;-57
2022/10/05 09:07:08;;;;;;;;;9.33;9.00;18.40;99.90;;;;;;5012662;28;9083;-57
2022/10/05 09:09:56;;;;;;;;;6.00;6.00;18.40;99.90;;;;;;5013013;28;9182;-59
2022/10/05 09:12:46;;;;;;;;;6.00;6.00;18.40;99.90;;;;;;4998834;28;9260;-57
2022/10/05 09:15:47;;;;;;;;;7.00;7.00;18.40;99.90;;;;;;4997352;28;9087;-61
2022/10/05 09:18:39;;;;;;;;;7.33;7.33;18.30;99.90;;;;;;4997610;28;9175;-60
2022/10/05 09:21:28;;;;;;;;;7.00;7.00;18.30;99.90;;;;;;5002988;28;9388;-61
2022/10/05 09:24:10;;;;;;;;;6.00;6.00;18.20;99.90;;;;;;4997952;28;9279;-58
2022/10/05 09:26:43;;;;;;;;;6.00;6.00;18.20;99.90;;;;;;5012756;28;9104;-57
2022/10/05 09:29:52;;;;;;;;;7.00;7.00;18.10;99.90;;;;;;5001444;28;9244;-59
2022/10/05 09:32:58;;;;;;;;;7.00;7.00;18.10;99.90;;;;;;5003714;28;9255;-61
2022/10/05 09:35:56;;;;;;;;;7.00;7.00;18.10;99.90;;;;;;5000847;28;9175;-62
2022/10/05 09:38:54;;;;;;;;;8.33;7.00;18.10;99.90;;;;;;4998844;28;9331;-58
2022/10/05 09:41:27;;;;;;;;;8.33;8.33;18.10;99.90;;;;;;4998543;28;9272;-57
2022/10/05 09:44:11;;;;;;;;;9.00;9.00;18.10;99.90;;;;;;5005856;28;9410;-60
2022/10/05 09:46:50;;;;;;;;;7.00;7.00;18.10;99.90;;;;;;5001133;28;9333;-60
2022/10/05 09:50:01;;;;;;;;;6.00;6.00;18.10;99.90;;;;;;5004373;28;9333;-58
2022/10/05 09:53:12;;;;;;;;;7.33;7.33;18.10;99.90;;;;;;4998820;28;10414;-58
2022/10/05 09:56:26;;;;;;;;;6.33;6.33;18.00;99.90;;;;;;5000917;28;9436;-58
2022/10/05 09:59:33;;;;;;;;;7.00;7.00;18.10;99.90;;;;;;4999834;28;9170;-60
2022/10/05 10:02:19;;;;;;;;;6.00;6.00;18.00;99.90;;;;;;4993978;28;10326;-60
2022/10/05 10:05:18;;;;;;;;;8.67;8.00;17.90;99.90;;;;;;5013396;28;9917;-61
2022/10/05 10:08:15;;;;;;;;;5.00;5.00;17.90;99.90;;;;;;5005364;28;9271;-60
2022/10/05 10:11:12;;;;;;;;;6.00;6.00;17.90;99.90;;;;;;5000680;28;10150;-58
2022/10/05 10:14:08;;;;;;;;;6.00;6.00;17.80;99.90;;;;;;5000428;28;9391;-57
2022/10/05 10:16:56;;;;;;;;;7.67;7.67;17.90;99.90;;;;;;4984603;28;9392;-58
2022/10/05 10:19:46;;;;;;;;;6.00;6.00;17.80;99.90;;;;;;5001720;28;9353;-61
2022/10/05 10:22:29;;;;;;;;;6.00;6.00;17.70;99.90;;;;;;5003356;28;9405;-60
2022/10/05 10:25:34;;;;;;;;;6.00;6.00;17.80;99.90;;;;;;5000866;28;9335;-61
2022/10/05 10:28:36;;;;;;;;;6.00;6.00;17.90;99.90;;;;;;5001020;28;9252;-58
2022/10/05 10:31:28;;;;;;;;;4.67;4.67;17.90;99.90;;;;;;4983278;28;9588;-58
2022/10/05 10:34:02;;;;;;;;;6.33;6.33;17.90;99.90;;;;;;5016240;28;9485;-60
2022/10/05 10:36:50;;;;;;;;;6.00;6.00;17.70;99.90;;;;;;5015413;28;10110;-60
2022/10/05 10:40:02;;;;;;;;;7.00;7.00;17.50;99.90;;;;;;5000527;28;9462;-58
2022/10/05 10:42:47;;;;;;;;;4.67;4.67;17.50;99.90;;;;;;4990239;28;9759;-58
2022/10/05 10:45:44;;;;;;;;;7.00;7.00;17.40;99.90;;;;;;5003493;28;9385;-58
2022/10/05 10:48:27;;;;;;;;;6.67;6.67;17.50;99.90;;;;;;5000429;28;9227;-61
2022/10/05 10:51:18;;;;;;;;;8.33;8.33;17.50;99.90;;;;;;5000921;28;9460;-60
2022/10/05 10:54:06;;;;;;;;;10.33;9.00;17.40;99.90;;;;;;4997105;28;9406;-60
2022/10/05 10:56:48;;;;;;;;;7.00;7.00;17.50;99.90;;;;;;4998696;28;9607;-59
2022/10/05 10:59:36;;;;;;;;;5.67;5.67;17.40;99.90;;;;;;4999142;28;9485;-60
2022/10/05 11:02:26;;;;;;;;;7.33;7.33;17.40;99.90;;;;;;4996615;28;9557;-60
2022/10/05 11:05:02;;;;;;;;;7.67;6.67;17.40;99.90;;;;;;4996067;28;9423;-61
2022/10/05 11:07:41;;;;;;;;;7.25;7.25;17.40;99.90;;;;;;5004697;28;10136;-59
2022/10/05 11:10:24;;;;;;;;;5.33;5.33;17.30;99.90;;;;;;4999905;28;9650;-60
2022/10/05 11:13:34;;;;;;;;;7.25;7.25;17.30;99.90;;;;;;4998786;28;9621;-59
2022/10/05 11:16:46;;;;;;;;;5.67;5.67;17.30;99.90;;;;;;4986148;28;9745;-60
2022/10/05 11:19:42;;;;;;;;;7.00;7.00;17.30;99.90;;;;;;4997690;28;9812;-58
2022/10/05 11:22:49;;;;;;;;;7.00;7.00;17.30;99.90;;;;;;4998106;28;9771;-56
2022/10/05 11:25:41;;;;;;;;;8.33;6.00;17.30;99.90;;;;;;4992888;28;9659;-58
2022/10/05 11:28:43;;;;;;;;;5.33;5.33;17.20;99.90;;;;;;4999569;28;9731;-57
2022/10/05 11:31:32;;;;;;;;;7.25;7.25;17.20;99.90;;;;;;4981863;28;9618;-58
2022/10/05 11:34:18;;;;;;;;;7.75;7.75;17.30;99.90;;;;;;4999908;28;9701;-58
2022/10/05 11:37:16;;;;;;;;;6.33;6.33;17.20;99.90;;;;;;5000940;28;9816;-57
2022/10/05 11:40:25;;;;;;;;;5.33;5.33;17.20;99.90;;;;;;5001229;28;9464;-60
2022/10/05 11:43:50;;;;;;;;;7.75;7.75;17.20;99.90;;;;;;4998323;28;9485;-60
2022/10/05 11:46:39;;;;;;;;;7.00;7.00;17.30;99.90;;;;;;4978436;28;9701;-60
2022/10/05 11:49:24;;;;;;;;;6.75;6.75;17.20;99.90;;;;;;4999837;28;9640;-57
2022/10/05 11:52:10;;;;;;;;;8.25;8.25;17.20;99.90;;;;;;5001098;28;9532;-60
2022/10/05 11:54:46;;;;;;;;;7.75;7.75;17.30;99.90;;;;;;4999644;28;9546;-57
2022/10/05 11:57:56;;;;;;;;;7.25;7.25;17.30;99.90;;;;;;5004648;28;9701;-58
2022/10/05 12:00:45;;;;;;;;;9.00;9.00;17.20;99.90;;;;;;4991741;28;9795;-59
2022/10/05 12:03:31;;;;;;;;;7.25;7.25;17.20;99.90;;;;;;5000011;28;9813;-57
2022/10/05 12:06:15;;;;;;;;;8.75;7.00;17.20;99.90;;;;;;4997697;28;9756;-57
2022/10/05 12:09:32;;;;;;;;;8.00;8.00;17.10;99.90;;;;;;5001536;28;9692;-60
2022/10/05 12:12:20;;;;;;;;;10.00;10.00;17.10;99.90;;;;;;4999239;28;9544;-60
2022/10/05 12:15:18;;;;;;;;;8.33;8.33;17.10;99.90;;;;;;4998990;28;9683;-58
2022/10/05 12:18:12;;;;;;;;;7.25;7.25;17.10;99.90;;;;;;5005181;28;9546;-59
2022/10/05 12:20:53;;;;;;;;;8.50;8.50;17.10;99.90;;;;;;4999739;28;9542;-57
2022/10/05 12:23:39;;;;;;;;;7.25;7.25;17.10;99.90;;;;;;4998642;28;10427;-61
2022/10/05 12:26:24;;;;;;;;;11.00;10.50;17.10;99.90;;;;;;4997145;28;9732;-61
2022/10/05 12:29:05;;;;;;;;;7.00;7.00;17.00;99.90;;;;;;4996848;28;10577;-57
2022/10/05 12:31:39;;;;;;;;;9.25;9.25;17.10;99.90;;;;;;4988995;28;9639;-57
2022/10/05 12:34:32;;;;;;;;;7.00;7.00;17.00;99.90;;;;;;5001504;28;9620;-57
2022/10/05 12:37:12;;;;;;;;;7.25;7.25;17.00;99.90;;;;;;5003685;28;9605;-58
2022/10/05 12:39:53;;;;;;;;;8.25;8.25;17.00;99.90;;;;;;5000858;28;9623;-59
2022/10/05 12:42:59;;;;;;;;;8.25;8.25;17.00;99.90;;;;;;5002046;28;9687;-62
2022/10/05 12:45:56;;;;;;;;;9.75;9.75;17.00;99.90;;;;;;5001547;28;9697;-60
2022/10/05 12:48:31;;;;;;;;;9.25;9.25;17.10;99.90;;;;;;5000518;28;9882;-56
2022/10/05 12:51:18;;;;;;;;;8.00;8.00;17.00;99.90;;;;;;4999452;28;9968;-57
2022/10/05 12:54:18;;;;;;;;;9.25;9.25;17.10;99.90;;;;;;4998834;28;9580;-59
2022/10/05 12:57:05;;;;;;;;;7.75;7.75;17.20;99.90;;;;;;4998887;28;9705;-60
2022/10/05 12:59:52;;;;;;;;;9.00;9.00;17.20;99.90;;;;;;5002495;28;9773;-60
2022/10/05 13:02:45;;;;;;;;;8.75;8.75;17.20;99.90;;;;;;4996697;28;9749;-62
2022/10/05 13:05:41;;;;;;;;;9.75;9.75;17.20;99.90;;;;;;4997787;28;9953;-60
2022/10/05 13:08:34;;;;;;;;;8.75;8.75;17.30;99.90;;;;;;5000658;28;9791;-61
2022/10/05 13:11:20;;;;;;;;;9.75;8.75;17.30;99.90;;;;;;5002064;28;9926;-61
2022/10/05 13:14:15;;;;;;;;;9.00;9.00;17.40;99.90;;;;;;5005758;28;9856;-60
2022/10/05 13:16:58;;;;;;;;;9.00;9.00;17.50;99.90;;;;;;5003304;28;9733;-60
2022/10/05 13:19:57;;;;;;;;;10.00;10.00;17.60;99.90;;;;;;5001763;28;10106;-60
2022/10/05 13:22:54;;;;;;;;;8.50;8.50;17.70;99.90;;;;;;4995911;28;9909;-59
2022/10/05 13:25:37;;;;;;;;;7.75;7.75;17.80;99.90;;;;;;4993262;28;9888;-57
2022/10/05 13:28:18;;;;;;;;;6.00;6.00;18.00;99.90;;;;;;5012128;28;9823;-59
2022/10/05 13:31:02;;;;;;;;;8.00;8.00;18.00;99.90;;;;;;4996265;28;9599;-60
2022/10/05 13:33:50;;;;;;;;;11.00;11.00;18.10;99.90;;;;;;4996381;28;9801;-58
2022/10/05 13:36:38;;;;;;;;;8.25;8.00;18.20;99.90;;;;;;5000256;28;10537;-58
2022/10/05 13:39:32;;;;;;;;;9.50;9.50;18.30;99.90;;;;;;5005023;28;9576;-58
2022/10/05 13:42:24;;;;;;;;;9.00;9.00;18.40;99.90;;;;;;5005743;28;9830;-57
2022/10/05 13:45:01;;;;;;;;;10.25;10.25;18.50;99.90;;;;;;5000872;28;9936;-58
2022/10/05 13:47:59;;;;;;;;;8.67;8.67;18.50;99.90;;;;;;5005672;28;9859;-57
2022/10/05 13:50:33;;;;;;;;;9.00;9.00;18.60;99.90;;;;;;4998485;28;9421;-60
2022/10/05 13:53:28;;;;;;;;;7.33;7.33;18.70;99.90;;;;;;4996678;28;9704;-56
2022/10/05 13:56:08;;;;;;;;;9.33;9.33;18.80;99.90;;;;;;4997292;28;9835;-59
2022/10/05 13:59:24;;;;;;;;;7.33;7.33;18.90;99.90;;;;;;5006501;28;9581;-58
2022/10/05 14:02:04;;;;;;;;;10.33;10.33;19.10;99.90;;;;;;5000193;28;9594;-58
2022/10/05 14:04:49;;;;;;;;;9.00;7.67;19.20;99.90;;;;;;5004497;28;9356;-57
2022/10/05 14:07:43;;;;;;;;;11.67;9.00;19.30;99.90;;;;;;4996012;28;9266;-57
2022/10/05 14:10:27;;;;;;;;;11.33;9.00;19.40;99.90;;;;;;4999401;28;9166;-61
2022/10/05 14:12:59;;;;;;;;;9.00;9.00;19.50;99.90;;;;;;5002064;28;9194;-60
2022/10/05 14:15:34;;;;;;;;;7.00;7.00;19.50;99.90;;;;;;4998205;28;10172;-58
2022/10/05 14:18:27;;;;;;;;;8.00;8.00;19.70;99.90;;;;;;5002013;28;9167;-60
2022/10/05 14:21:06;;;;;;;;;6.67;6.67;19.80;99.90;;;;;;5003544;28;9224;-59
2022/10/05 14:23:44;;;;;;;;;9.33;8.00;19.80;99.90;;;;;;5003585;28;9173;-58
2022/10/05 14:26:37;;;;;;;;;8.00;8.00;20.00;99.90;;;;;;4993987;28;9129;-57
2022/10/05 14:29:14;;;;;;;;;8.33;8.33;20.20;99.90;;;;;;5006238;28;9126;-59
2022/10/05 14:32:01;;;;;;;;;6.00;6.00;20.30;99.90;;;;;;5004306;28;9102;-58
2022/10/05 14:34:41;;;;;;;;;8.00;8.00;20.40;99.90;;;;;;5004578;28;9796;-57
2022/10/05 14:37:18;;;;;;;;;8.33;7.00;20.40;99.90;;;;;;5003790;28;9179;-58
2022/10/05 14:40:02;;;;;;;;;10.00;10.00;20.40;99.90;;;;;;5001197;28;9254;-59
2022/10/05 14:42:42;;;;;;;;;10.67;9.00;20.50;99.90;;;;;;5005407;28;9242;-60
2022/10/05 14:45:28;;;;;;;;;7.00;7.00;20.70;99.90;;;;;;5013473;28;9259;-60
2022/10/05 14:48:10;;;;;;;;;8.00;8.00;20.80;99.90;;;;;;5008257;28;9016;-61
2022/10/05 14:50:53;;;;;;;;;7.00;7.00;21.00;99.90;;;;;;5016579;28;9009;-62
2022/10/05 14:53:36;;;;;;;;;6.67;6.67;21.20;99.90;;;;;;4990462;28;10239;-58
2022/10/05 14:56:35;;;;;;;;;6.00;6.00;21.40;99.90;;;;;;5000535;28;9034;-58
2022/10/05 14:59:26;;;;;;;;;6.00;6.00;21.50;99.90;;;;;;4998571;28;8870;-60